sensor_id;sensor_type;location;lat;lon;timestamp;temperature;humidity
30280;DHT22;17097;50.916;5.344;2023-05-20T00:00:35;16.60;96.00
30280;DHT22;17097;50.916;5.344;2023-05-20T00:03:03;16.60;96.20
30280;DHT22;17097;50.916;5.344;2023-05-20T00:05:29;16.40;96.40
30280;DHT22;17097;50.916;5.344;2023-05-20T00:07:58;16.50;96.70
30280;DHT22;17097;50.916;5.344;2023-05-20T00:10:24;16.50;96.90
30280;DHT22;17097;50.916;5.344;2023-05-20T00:12:50;16.50;97.00
30280;DHT22;17097;50.916;5.344;2023-05-20T00:15:16;16.40;97.20
30280;DHT22;17097;50.916;5.344;2023-05-20T00:17:42;16.40;97.60
30280;DHT22;17097;50.916;5.344;2023-05-20T00:20:08;16.40;97.60
30280;DHT22;17097;50.916;5.344;2023-05-20T00:22:34;16.30;98.00
30280;DHT22;17097;50.916;5.344;2023-05-20T00:25:00;16.40;97.80
30280;DHT22;17097;50.916;5.344;2023-05-20T00:27:25;16.40;98.10
30280;DHT22;17097;50.916;5.344;2023-05-20T00:29:54;16.40;98.30
30280;DHT22;17097;50.916;5.344;2023-05-20T00:32:20;16.30;98.70
30280;DHT22;17097;50.916;5.344;2023-05-20T00:34:55;16.30;99.00
30280;DHT22;17097;50.916;5.344;2023-05-20T00:37:21;16.40;99.10
30280;DHT22;17097;50.916;5.344;2023-05-20T00:39:47;16.30;99.50
30280;DHT22;17097;50.916;5.344;2023-05-20T00:42:27;16.10;99.60
30280;DHT22;17097;50.916;5.344;2023-05-20T00:44:54;16.20;99.90
30280;DHT22;17097;50.916;5.344;2023-05-20T00:47:24;16.10;99.90
30280;DHT22;17097;50.916;5.344;2023-05-20T00:49:51;16.00;99.90
30280;DHT22;17097;50.916;5.344;2023-05-20T00:52:18;16.10;99.90
30280;DHT22;17097;50.916;5.344;2023-05-20T00:54:44;16.10;99.90
30280;DHT22;17097;50.916;5.344;2023-05-20T00:57:11;16.10;99.90
30280;DHT22;17097;50.916;5.344;2023-05-20T00:59:37;15.90;99.90
30280;DHT22;17097;50.916;5.344;2023-05-20T01:02:04;15.90;99.90
30280;DHT22;17097;50.916;5.344;2023-05-20T01:04:30;15.90;99.90
30280;DHT22;17097;50.916;5.344;2023-05-20T01:06:59;16.00;99.90
30280;DHT22;17097;50.916;5.344;2023-05-20T01:09:29;15.90;99.90
30280;DHT22;17097;50.916;5.344;2023-05-20T01:12:19;15.70;99.90
30280;DHT22;17097;50.916;5.344;2023-05-20T01:14:50;15.70;99.90
30280;DHT22;17097;50.916;5.344;2023-05-20T01:17:23;15.60;99.90
30280;DHT22;17097;50.916;5.344;2023-05-20T01:19:53;15.60;99.90
30280;DHT22;17097;50.916;5.344;2023-05-20T01:22:27;15.70;99.90
30280;DHT22;17097;50.916;5.344;2023-05-20T01:24:52;15.70;99.90
30280;DHT22;17097;50.916;5.344;2023-05-20T01:27:20;15.60;99.90
30280;DHT22;17097;50.916;5.344;2023-05-20T01:29:50;15.50;99.90
30280;DHT22;17097;50.916;5.344;2023-05-20T01:35:32;15.60;99.90
30280;DHT22;17097;50.916;5.344;2023-05-20T01:37:59;15.50;99.90
30280;DHT22;17097;50.916;5.344;2023-05-20T01:40:26;15.40;99.90
30280;DHT22;17097;50.916;5.344;2023-05-20T01:42:54;15.40;99.90
30280;DHT22;17097;50.916;5.344;2023-05-20T01:45:23;15.40;99.90
30280;DHT22;17097;50.916;5.344;2023-05-20T01:47:49;15.30;99.90
30280;DHT22;17097;50.916;5.344;2023-05-20T01:50:17;15.10;99.90
30280;DHT22;17097;50.916;5.344;2023-05-20T01:52:46;15.10;99.90
30280;DHT22;17097;50.916;5.344;2023-05-20T01:55:14;15.10;99.90
30280;DHT22;17097;50.916;5.344;2023-05-20T01:57:40;15.20;99.90
30280;DHT22;17097;50.916;5.344;2023-05-20T02:00:10;15.10;99.90
30280;DHT22;17097;50.916;5.344;2023-05-20T02:02:36;15.00;99.90
30280;DHT22;17097;50.916;5.344;2023-05-20T02:05:01;15.10;99.90
30280;DHT22;17097;50.916;5.344;2023-05-20T02:07:29;15.00;99.90
30280;DHT22;17097;50.916;5.344;2023-05-20T02:09:55;14.90;99.90
30280;DHT22;17097;50.916;5.344;2023-05-20T02:12:21;14.90;99.90
30280;DHT22;17097;50.916;5.344;2023-05-20T02:14:47;14.90;99.90
30280;DHT22;17097;50.916;5.344;2023-05-20T02:17:15;14.80;99.90
30280;DHT22;17097;50.916;5.344;2023-05-20T02:19:44;14.80;99.90
30280;DHT22;17097;50.916;5.344;2023-05-20T02:22:11;14.80;99.90
30280;DHT22;17097;50.916;5.344;2023-05-20T02:24:38;14.70;99.90
30280;DHT22;17097;50.916;5.344;2023-05-20T02:27:04;14.70;99.90
30280;DHT22;17097;50.916;5.344;2023-05-20T02:29:33;14.70;99.90
30280;DHT22;17097;50.916;5.344;2023-05-20T02:31:59;14.70;99.90
30280;DHT22;17097;50.916;5.344;2023-05-20T02:34:24;14.80;99.90
30280;DHT22;17097;50.916;5.344;2023-05-20T02:36:51;14.80;99.90
30280;DHT22;17097;50.916;5.344;2023-05-20T02:39:17;14.70;99.90
30280;DHT22;17097;50.916;5.344;2023-05-20T02:41:43;14.70;99.90
30280;DHT22;17097;50.916;5.344;2023-05-20T02:44:08;14.60;99.90
30280;DHT22;17097;50.916;5.344;2023-05-20T02:46:34;14.50;99.90
30280;DHT22;17097;50.916;5.344;2023-05-20T02:49:00;14.40;99.90
30280;DHT22;17097;50.916;5.344;2023-05-20T02:51:26;14.50;99.90
30280;DHT22;17097;50.916;5.344;2023-05-20T02:53:52;14.40;99.90
30280;DHT22;17097;50.916;5.344;2023-05-20T02:56:18;14.50;99.90
30280;DHT22;17097;50.916;5.344;2023-05-20T02:58:49;14.50;99.90
30280;DHT22;17097;50.916;5.344;2023-05-20T03:01:18;14.40;99.90
30280;DHT22;17097;50.916;5.344;2023-05-20T03:03:44;14.40;99.90
30280;DHT22;17097;50.916;5.344;2023-05-20T03:06:10;14.20;99.90
30280;DHT22;17097;50.916;5.344;2023-05-20T03:08:37;14.30;99.90
30280;DHT22;17097;50.916;5.344;2023-05-20T03:11:04;14.20;99.90
30280;DHT22;17097;50.916;5.344;2023-05-20T03:13:30;14.20;99.90
30280;DHT22;17097;50.916;5.344;2023-05-20T03:15:56;14.20;99.90
30280;DHT22;17097;50.916;5.344;2023-05-20T03:18:22;14.20;99.90
30280;DHT22;17097;50.916;5.344;2023-05-20T03:20:48;14.10;99.90
30280;DHT22;17097;50.916;5.344;2023-05-20T03:23:14;14.10;99.90
30280;DHT22;17097;50.916;5.344;2023-05-20T03:25:43;14.10;99.90
30280;DHT22;17097;50.916;5.344;2023-05-20T03:28:09;14.10;99.90
30280;DHT22;17097;50.916;5.344;2023-05-20T03:30:35;14.00;99.90
30280;DHT22;17097;50.916;5.344;2023-05-20T03:33:01;14.00;99.90
30280;DHT22;17097;50.916;5.344;2023-05-20T03:35:30;14.00;99.90
30280;DHT22;17097;50.916;5.344;2023-05-20T03:37:56;13.90;99.90
30280;DHT22;17097;50.916;5.344;2023-05-20T03:40:23;14.00;99.90
30280;DHT22;17097;50.916;5.344;2023-05-20T03:42:50;14.00;99.90
30280;DHT22;17097;50.916;5.344;2023-05-20T03:45:16;14.00;99.90
30280;DHT22;17097;50.916;5.344;2023-05-20T03:47:42;13.90;99.90
30280;DHT22;17097;50.916;5.344;2023-05-20T03:50:11;14.00;99.90
30280;DHT22;17097;50.916;5.344;2023-05-20T03:52:39;14.00;99.90
30280;DHT22;17097;50.916;5.344;2023-05-20T03:55:05;14.10;99.90
30280;DHT22;17097;50.916;5.344;2023-05-20T03:57:32;14.10;99.90
30280;DHT22;17097;50.916;5.344;2023-05-20T03:59:58;14.10;99.90
30280;DHT22;17097;50.916;5.344;2023-05-20T04:02:24;14.10;99.90
30280;DHT22;17097;50.916;5.344;2023-05-20T04:04:50;14.00;99.90
30280;DHT22;17097;50.916;5.344;2023-05-20T04:07:17;14.00;99.90
30280;DHT22;17097;50.916;5.344;2023-05-20T04:09:43;13.90;99.90
30280;DHT22;17097;50.916;5.344;2023-05-20T04:12:08;14.00;99.90
30280;DHT22;17097;50.916;5.344;2023-05-20T04:14:34;14.10;99.90
30280;DHT22;17097;50.916;5.344;2023-05-20T04:17:04;14.00;99.90
30280;DHT22;17097;50.916;5.344;2023-05-20T04:19:30;14.10;99.90
30280;DHT22;17097;50.916;5.344;2023-05-20T04:21:58;14.00;99.90
30280;DHT22;17097;50.916;5.344;2023-05-20T04:24:24;14.10;99.90
30280;DHT22;17097;50.916;5.344;2023-05-20T04:26:51;14.10;99.90
30280;DHT22;17097;50.916;5.344;2023-05-20T04:29:19;14.10;99.90
30280;DHT22;17097;50.916;5.344;2023-05-20T04:31:45;14.10;99.90
30280;DHT22;17097;50.916;5.344;2023-05-20T04:34:12;14.10;99.90
30280;DHT22;17097;50.916;5.344;2023-05-20T04:36:38;14.00;99.90
30280;DHT22;17097;50.916;5.344;2023-05-20T04:39:06;14.00;99.90
30280;DHT22;17097;50.916;5.344;2023-05-20T04:41:32;14.00;99.90
30280;DHT22;17097;50.916;5.344;2023-05-20T04:43:59;14.10;99.90
30280;DHT22;17097;50.916;5.344;2023-05-20T04:46:26;14.20;99.90
30280;DHT22;17097;50.916;5.344;2023-05-20T04:48:52;14.10;99.90
30280;DHT22;17097;50.916;5.344;2023-05-20T04:51:20;14.10;99.90
30280;DHT22;17097;50.916;5.344;2023-05-20T04:53:46;14.30;99.90
30280;DHT22;17097;50.916;5.344;2023-05-20T04:56:14;14.30;99.90
30280;DHT22;17097;50.916;5.344;2023-05-20T04:58:42;14.50;99.90
30280;DHT22;17097;50.916;5.344;2023-05-20T05:01:11;14.50;99.90
30280;DHT22;17097;50.916;5.344;2023-05-20T05:03:37;14.50;99.90
30280;DHT22;17097;50.916;5.344;2023-05-20T05:06:03;14.50;99.90
30280;DHT22;17097;50.916;5.344;2023-05-20T05:08:31;14.50;99.90
30280;DHT22;17097;50.916;5.344;2023-05-20T05:10:57;14.50;99.90
30280;DHT22;17097;50.916;5.344;2023-05-20T05:13:25;14.60;99.90
30280;DHT22;17097;50.916;5.344;2023-05-20T05:15:57;14.70;99.90
30280;DHT22;17097;50.916;5.344;2023-05-20T05:18:23;14.60;99.90
30280;DHT22;17097;50.916;5.344;2023-05-20T05:20:49;14.50;99.90
30280;DHT22;17097;50.916;5.344;2023-05-20T05:23:15;14.50;99.90
30280;DHT22;17097;50.916;5.344;2023-05-20T05:25:43;14.60;99.90
30280;DHT22;17097;50.916;5.344;2023-05-20T05:28:09;14.70;99.90
30280;DHT22;17097;50.916;5.344;2023-05-20T05:30:35;14.70;99.90
30280;DHT22;17097;50.916;5.344;2023-05-20T05:33:01;14.60;99.90
30280;DHT22;17097;50.916;5.344;2023-05-20T05:35:27;14.70;99.90
30280;DHT22;17097;50.916;5.344;2023-05-20T05:37:53;14.90;99.90
30280;DHT22;17097;50.916;5.344;2023-05-20T05:40:19;15.10;99.90
30280;DHT22;17097;50.916;5.344;2023-05-20T05:42:47;15.30;99.90
30280;DHT22;17097;50.916;5.344;2023-05-20T05:45:13;15.50;99.90
30280;DHT22;17097;50.916;5.344;2023-05-20T05:47:39;15.80;99.90
30280;DHT22;17097;50.916;5.344;2023-05-20T05:50:05;15.90;99.90
30280;DHT22;17097;50.916;5.344;2023-05-20T05:52:31;16.00;99.90
30280;DHT22;17097;50.916;5.344;2023-05-20T05:54:57;16.10;99.90
30280;DHT22;17097;50.916;5.344;2023-05-20T05:57:23;16.00;99.90
30280;DHT22;17097;50.916;5.344;2023-05-20T05:59:48;16.20;99.90
30280;DHT22;17097;50.916;5.344;2023-05-20T06:02:16;16.40;99.90
30280;DHT22;17097;50.916;5.344;2023-05-20T06:04:42;16.60;99.90
30280;DHT22;17097;50.916;5.344;2023-05-20T06:07:07;16.60;99.90
30280;DHT22;17097;50.916;5.344;2023-05-20T06:09:33;16.60;99.90
30280;DHT22;17097;50.916;5.344;2023-05-20T06:11:59;16.60;99.90
30280;DHT22;17097;50.916;5.344;2023-05-20T06:14:27;16.80;99.90
30280;DHT22;17097;50.916;5.344;2023-05-20T06:16:53;16.90;99.90
30280;DHT22;17097;50.916;5.344;2023-05-20T06:19:18;16.90;99.90
30280;DHT22;17097;50.916;5.344;2023-05-20T06:21:44;17.00;99.90
30280;DHT22;17097;50.916;5.344;2023-05-20T06:24:10;17.20;99.90
30280;DHT22;17097;50.916;5.344;2023-05-20T06:26:36;17.10;99.90
30280;DHT22;17097;50.916;5.344;2023-05-20T06:29:04;17.10;99.90
30280;DHT22;17097;50.916;5.344;2023-05-20T06:31:30;17.30;99.90
30280;DHT22;17097;50.916;5.344;2023-05-20T06:33:55;17.40;99.90
30280;DHT22;17097;50.916;5.344;2023-05-20T06:36:21;17.40;99.90
30280;DHT22;17097;50.916;5.344;2023-05-20T06:38:49;17.40;99.90
30280;DHT22;17097;50.916;5.344;2023-05-20T06:41:15;17.40;99.90
30280;DHT22;17097;50.916;5.344;2023-05-20T06:43:40;17.60;99.90
30280;DHT22;17097;50.916;5.344;2023-05-20T06:46:09;17.70;99.90
30280;DHT22;17097;50.916;5.344;2023-05-20T06:48:34;17.70;99.90
30280;DHT22;17097;50.916;5.344;2023-05-20T06:51:00;17.80;99.90
30280;DHT22;17097;50.916;5.344;2023-05-20T06:53:26;17.90;99.90
30280;DHT22;17097;50.916;5.344;2023-05-20T06:55:57;18.00;99.90
30280;DHT22;17097;50.916;5.344;2023-05-20T06:58:23;18.20;99.90
30280;DHT22;17097;50.916;5.344;2023-05-20T07:00:51;18.20;99.90
30280;DHT22;17097;50.916;5.344;2023-05-20T07:03:17;18.20;99.90
30280;DHT22;17097;50.916;5.344;2023-05-20T07:05:43;18.30;99.90
30280;DHT22;17097;50.916;5.344;2023-05-20T07:08:09;18.40;99.90
30280;DHT22;17097;50.916;5.344;2023-05-20T07:10:37;18.50;99.90
30280;DHT22;17097;50.916;5.344;2023-05-20T07:13:03;18.40;99.90
30280;DHT22;17097;50.916;5.344;2023-05-20T07:15:28;18.60;99.90
30280;DHT22;17097;50.916;5.344;2023-05-20T07:17:55;18.70;99.90
30280;DHT22;17097;50.916;5.344;2023-05-20T07:20:25;18.90;99.90
30280;DHT22;17097;50.916;5.344;2023-05-20T07:22:52;18.90;99.90
30280;DHT22;17097;50.916;5.344;2023-05-20T07:25:17;19.00;99.90
30280;DHT22;17097;50.916;5.344;2023-05-20T07:27:43;19.10;99.90
30280;DHT22;17097;50.916;5.344;2023-05-20T07:30:10;19.30;99.90
30280;DHT22;17097;50.916;5.344;2023-05-20T07:32:36;19.40;99.90
30280;DHT22;17097;50.916;5.344;2023-05-20T07:35:02;19.50;99.90
30280;DHT22;17097;50.916;5.344;2023-05-20T07:37:31;19.60;99.90
30280;DHT22;17097;50.916;5.344;2023-05-20T07:39:56;19.90;99.90
30280;DHT22;17097;50.916;5.344;2023-05-20T07:42:22;20.20;99.90
30280;DHT22;17097;50.916;5.344;2023-05-20T07:44:51;20.30;99.90
30280;DHT22;17097;50.916;5.344;2023-05-20T07:47:16;20.30;99.90
30280;DHT22;17097;50.916;5.344;2023-05-20T07:49:42;20.40;99.90
30280;DHT22;17097;50.916;5.344;2023-05-20T07:52:08;20.10;99.90
30280;DHT22;17097;50.916;5.344;2023-05-20T07:54:34;20.10;99.90
30280;DHT22;17097;50.916;5.344;2023-05-20T07:57:01;20.20;99.90
30280;DHT22;17097;50.916;5.344;2023-05-20T07:59:27;20.40;99.90
30280;DHT22;17097;50.916;5.344;2023-05-20T08:01:53;20.50;99.90
30280;DHT22;17097;50.916;5.344;2023-05-20T08:04:19;20.60;99.90
30280;DHT22;17097;50.916;5.344;2023-05-20T08:06:45;20.60;99.90
30280;DHT22;17097;50.916;5.344;2023-05-20T08:09:11;20.60;99.90
30280;DHT22;17097;50.916;5.344;2023-05-20T08:11:37;20.70;99.90
30280;DHT22;17097;50.916;5.344;2023-05-20T08:14:02;20.70;99.90
30280;DHT22;17097;50.916;5.344;2023-05-20T08:16:28;20.80;99.90
30280;DHT22;17097;50.916;5.344;2023-05-20T08:18:57;20.70;99.90
30280;DHT22;17097;50.916;5.344;2023-05-20T08:21:23;20.80;99.90
30280;DHT22;17097;50.916;5.344;2023-05-20T08:23:49;20.90;99.90
30280;DHT22;17097;50.916;5.344;2023-05-20T08:26:16;21.10;99.90
30280;DHT22;17097;50.916;5.344;2023-05-20T08:28:42;21.30;99.90
30280;DHT22;17097;50.916;5.344;2023-05-20T08:31:11;21.60;99.70
30280;DHT22;17097;50.916;5.344;2023-05-20T08:33:37;21.60;98.60
30280;DHT22;17097;50.916;5.344;2023-05-20T08:36:03;21.80;98.60
30280;DHT22;17097;50.916;5.344;2023-05-20T08:38:30;22.10;97.30
30280;DHT22;17097;50.916;5.344;2023-05-20T08:40:56;22.20;97.80
30280;DHT22;17097;50.916;5.344;2023-05-20T08:43:23;22.00;97.50
30280;DHT22;17097;50.916;5.344;2023-05-20T08:45:49;22.00;98.10
30280;DHT22;17097;50.916;5.344;2023-05-20T08:48:17;22.40;97.00
30280;DHT22;17097;50.916;5.344;2023-05-20T08:50:45;22.70;96.40
30280;DHT22;17097;50.916;5.344;2023-05-20T08:53:14;23.20;96.60
30280;DHT22;17097;50.916;5.344;2023-05-20T08:55:48;23.60;93.50
30280;DHT22;17097;50.916;5.344;2023-05-20T08:58:17;24.10;92.20
30280;DHT22;17097;50.916;5.344;2023-05-20T09:00:44;24.60;91.20
30280;DHT22;17097;50.916;5.344;2023-05-20T09:03:10;25.30;91.20
30280;DHT22;17097;50.916;5.344;2023-05-20T09:05:36;25.80;86.70
30280;DHT22;17097;50.916;5.344;2023-05-20T09:08:06;26.00;82.40
30280;DHT22;17097;50.916;5.344;2023-05-20T09:10:36;26.50;86.60
30280;DHT22;17097;50.916;5.344;2023-05-20T09:13:03;26.60;80.00
30280;DHT22;17097;50.916;5.344;2023-05-20T09:15:30;27.00;76.70
30280;DHT22;17097;50.916;5.344;2023-05-20T09:17:59;27.00;75.50
30280;DHT22;17097;50.916;5.344;2023-05-20T09:20:25;27.00;75.50
30280;DHT22;17097;50.916;5.344;2023-05-20T09:22:51;27.30;75.40
30280;DHT22;17097;50.916;5.344;2023-05-20T09:25:19;27.60;73.80
30280;DHT22;17097;50.916;5.344;2023-05-20T09:27:45;27.90;71.00
30280;DHT22;17097;50.916;5.344;2023-05-20T09:30:11;28.20;71.00
30280;DHT22;17097;50.916;5.344;2023-05-20T09:32:40;28.40;69.60
30280;DHT22;17097;50.916;5.344;2023-05-20T09:35:06;28.40;70.20
30280;DHT22;17097;50.916;5.344;2023-05-20T09:37:33;28.30;69.10
30280;DHT22;17097;50.916;5.344;2023-05-20T09:40:03;28.30;67.90
30280;DHT22;17097;50.916;5.344;2023-05-20T09:42:36;28.50;67.80
30280;DHT22;17097;50.916;5.344;2023-05-20T09:45:03;28.40;66.40
30280;DHT22;17097;50.916;5.344;2023-05-20T09:47:29;28.30;67.20
30280;DHT22;17097;50.916;5.344;2023-05-20T09:49:56;28.10;66.90
30280;DHT22;17097;50.916;5.344;2023-05-20T09:52:23;28.50;66.80
30280;DHT22;17097;50.916;5.344;2023-05-20T09:54:50;28.50;64.70
30280;DHT22;17097;50.916;5.344;2023-05-20T09:57:16;28.50;66.30
30280;DHT22;17097;50.916;5.344;2023-05-20T09:59:43;28.40;67.60
30280;DHT22;17097;50.916;5.344;2023-05-20T10:02:09;28.50;66.40
30280;DHT22;17097;50.916;5.344;2023-05-20T10:04:39;28.50;65.50
30280;DHT22;17097;50.916;5.344;2023-05-20T10:12:35;28.70;64.90
30280;DHT22;17097;50.916;5.344;2023-05-20T10:20:49;29.50;65.70
30280;DHT22;17097;50.916;5.344;2023-05-20T10:25:51;29.50;63.20
30280;DHT22;17097;50.916;5.344;2023-05-20T10:28:30;29.50;63.20
30280;DHT22;17097;50.916;5.344;2023-05-20T10:30:58;29.90;63.80
30280;DHT22;17097;50.916;5.344;2023-05-20T10:33:28;30.00;62.50
30280;DHT22;17097;50.916;5.344;2023-05-20T10:35:57;30.00;61.60
30280;DHT22;17097;50.916;5.344;2023-05-20T10:38:23;29.80;62.60
30280;DHT22;17097;50.916;5.344;2023-05-20T10:40:48;29.90;61.80
30280;DHT22;17097;50.916;5.344;2023-05-20T10:43:16;30.10;61.40
30280;DHT22;17097;50.916;5.344;2023-05-20T10:45:56;29.90;59.80
30280;DHT22;17097;50.916;5.344;2023-05-20T10:48:28;29.80;61.80
30280;DHT22;17097;50.916;5.344;2023-05-20T10:50:57;29.80;61.20
30280;DHT22;17097;50.916;5.344;2023-05-20T10:53:25;29.80;62.50
30280;DHT22;17097;50.916;5.344;2023-05-20T10:55:52;29.80;63.30
30280;DHT22;17097;50.916;5.344;2023-05-20T10:58:22;29.90;61.90
30280;DHT22;17097;50.916;5.344;2023-05-20T11:00:51;29.90;61.90
30280;DHT22;17097;50.916;5.344;2023-05-20T11:03:18;29.60;61.60
30280;DHT22;17097;50.916;5.344;2023-05-20T11:05:45;29.50;61.80
30280;DHT22;17097;50.916;5.344;2023-05-20T11:08:12;29.40;61.60
30280;DHT22;17097;50.916;5.344;2023-05-20T11:10:38;29.30;63.00
30280;DHT22;17097;50.916;5.344;2023-05-20T11:13:06;29.10;63.60
30280;DHT22;17097;50.916;5.344;2023-05-20T11:15:34;29.00;62.10
30280;DHT22;17097;50.916;5.344;2023-05-20T11:18:02;28.80;62.40
30280;DHT22;17097;50.916;5.344;2023-05-20T11:20:28;28.70;64.40
30280;DHT22;17097;50.916;5.344;2023-05-20T11:22:55;28.60;65.30
30280;DHT22;17097;50.916;5.344;2023-05-20T11:25:26;28.00;63.40
30280;DHT22;17097;50.916;5.344;2023-05-20T11:27:53;27.70;64.20
30280;DHT22;17097;50.916;5.344;2023-05-20T11:30:21;27.70;66.80
30280;DHT22;17097;50.916;5.344;2023-05-20T11:33:00;27.80;68.60
30280;DHT22;17097;50.916;5.344;2023-05-20T11:35:27;28.00;68.30
30280;DHT22;17097;50.916;5.344;2023-05-20T11:38:04;27.90;64.90
30280;DHT22;17097;50.916;5.344;2023-05-20T11:40:34;28.10;66.30
30280;DHT22;17097;50.916;5.344;2023-05-20T11:43:03;28.00;65.00
30280;DHT22;17097;50.916;5.344;2023-05-20T11:45:51;28.00;65.60
30280;DHT22;17097;50.916;5.344;2023-05-20T11:48:18;27.80;67.60
30280;DHT22;17097;50.916;5.344;2023-05-20T11:50:45;27.90;67.20
30280;DHT22;17097;50.916;5.344;2023-05-20T11:53:15;27.90;67.10
30280;DHT22;17097;50.916;5.344;2023-05-20T11:55:49;27.70;66.20
30280;DHT22;17097;50.916;5.344;2023-05-20T11:58:19;27.80;65.70
30280;DHT22;17097;50.916;5.344;2023-05-20T12:00:48;27.50;66.30
30280;DHT22;17097;50.916;5.344;2023-05-20T12:03:17;27.30;68.10
30280;DHT22;17097;50.916;5.344;2023-05-20T12:05:43;26.90;69.00
30280;DHT22;17097;50.916;5.344;2023-05-20T12:08:11;26.50;71.60
30280;DHT22;17097;50.916;5.344;2023-05-20T12:10:36;26.40;72.40
30280;DHT22;17097;50.916;5.344;2023-05-20T12:13:05;26.60;69.80
30280;DHT22;17097;50.916;5.344;2023-05-20T12:15:34;26.80;69.50
30280;DHT22;17097;50.916;5.344;2023-05-20T12:18:03;26.90;69.10
30280;DHT22;17097;50.916;5.344;2023-05-20T12:20:30;27.00;69.10
30280;DHT22;17097;50.916;5.344;2023-05-20T12:22:56;26.80;68.70
30280;DHT22;17097;50.916;5.344;2023-05-20T12:25:25;26.80;70.90
30280;DHT22;17097;50.916;5.344;2023-05-20T12:27:51;26.90;71.00
30280;DHT22;17097;50.916;5.344;2023-05-20T12:30:18;27.20;70.60
30280;DHT22;17097;50.916;5.344;2023-05-20T12:32:45;27.30;72.60
30280;DHT22;17097;50.916;5.344;2023-05-20T12:35:13;27.30;70.00
30280;DHT22;17097;50.916;5.344;2023-05-20T12:37:40;27.20;69.00
30280;DHT22;17097;50.916;5.344;2023-05-20T12:40:07;27.40;69.70
30280;DHT22;17097;50.916;5.344;2023-05-20T12:42:35;27.40;69.70
30280;DHT22;17097;50.916;5.344;2023-05-20T12:45:01;27.30;69.30
30280;DHT22;17097;50.916;5.344;2023-05-20T12:47:27;27.20;69.70
30280;DHT22;17097;50.916;5.344;2023-05-20T12:49:53;27.20;71.00
30280;DHT22;17097;50.916;5.344;2023-05-20T12:52:19;27.50;70.50
30280;DHT22;17097;50.916;5.344;2023-05-20T12:54:45;27.60;71.00
30280;DHT22;17097;50.916;5.344;2023-05-20T12:57:13;27.80;69.20
30280;DHT22;17097;50.916;5.344;2023-05-20T12:59:39;27.80;72.10
30280;DHT22;17097;50.916;5.344;2023-05-20T13:02:05;27.80;69.20
30280;DHT22;17097;50.916;5.344;2023-05-20T13:04:31;27.90;71.20
30280;DHT22;17097;50.916;5.344;2023-05-20T13:06:59;27.90;68.20
30280;DHT22;17097;50.916;5.344;2023-05-20T13:09:25;28.00;68.30
30280;DHT22;17097;50.916;5.344;2023-05-20T13:11:51;28.20;67.50
30280;DHT22;17097;50.916;5.344;2023-05-20T13:14:17;28.50;69.70
30280;DHT22;17097;50.916;5.344;2023-05-20T13:16:43;28.70;67.10
30280;DHT22;17097;50.916;5.344;2023-05-20T13:19:09;28.50;65.50
30280;DHT22;17097;50.916;5.344;2023-05-20T13:21:36;28.40;67.40
30280;DHT22;17097;50.916;5.344;2023-05-20T13:24:02;28.20;66.90
30280;DHT22;17097;50.916;5.344;2023-05-20T13:26:31;28.10;67.30
30280;DHT22;17097;50.916;5.344;2023-05-20T13:28:57;27.70;67.40
30280;DHT22;17097;50.916;5.344;2023-05-20T13:31:23;27.60;69.10
30280;DHT22;17097;50.916;5.344;2023-05-20T13:33:51;27.70;69.90
30280;DHT22;17097;50.916;5.344;2023-05-20T13:36:17;27.70;67.60
30280;DHT22;17097;50.916;5.344;2023-05-20T13:38:43;27.70;70.90
30280;DHT22;17097;50.916;5.344;2023-05-20T13:41:11;27.90;70.90
30280;DHT22;17097;50.916;5.344;2023-05-20T13:43:36;27.60;69.10
30280;DHT22;17097;50.916;5.344;2023-05-20T13:46:03;27.50;69.90
30280;DHT22;17097;50.916;5.344;2023-05-20T13:48:29;27.60;72.10
30280;DHT22;17097;50.916;5.344;2023-05-20T13:50:55;27.60;69.90
30280;DHT22;17097;50.916;5.344;2023-05-20T13:53:21;27.50;70.30
30280;DHT22;17097;50.916;5.344;2023-05-20T13:55:47;27.30;69.70
30280;DHT22;17097;50.916;5.344;2023-05-20T13:58:12;27.30;73.10
30280;DHT22;17097;50.916;5.344;2023-05-20T14:00:38;27.30;71.50
30280;DHT22;17097;50.916;5.344;2023-05-20T14:03:07;27.40;69.40
30280;DHT22;17097;50.916;5.344;2023-05-20T14:05:35;27.40;70.50
30280;DHT22;17097;50.916;5.344;2023-05-20T14:08:03;27.20;71.20
30280;DHT22;17097;50.916;5.344;2023-05-20T14:10:28;27.20;72.00
30280;DHT22;17097;50.916;5.344;2023-05-20T14:12:56;27.10;72.90
30280;DHT22;17097;50.916;5.344;2023-05-20T14:15:22;26.90;73.50
30280;DHT22;17097;50.916;5.344;2023-05-20T14:17:48;26.90;72.30
30280;DHT22;17097;50.916;5.344;2023-05-20T14:20:17;26.80;73.60
30280;DHT22;17097;50.916;5.344;2023-05-20T14:22:42;26.70;73.50
30280;DHT22;17097;50.916;5.344;2023-05-20T14:25:08;26.60;73.70
30280;DHT22;17097;50.916;5.344;2023-05-20T14:27:34;26.70;73.90
30280;DHT22;17097;50.916;5.344;2023-05-20T14:29:59;26.60;74.60
30280;DHT22;17097;50.916;5.344;2023-05-20T14:32:28;26.50;74.80
30280;DHT22;17097;50.916;5.344;2023-05-20T14:34:53;26.40;74.60
30280;DHT22;17097;50.916;5.344;2023-05-20T14:37:19;26.40;74.50
30280;DHT22;17097;50.916;5.344;2023-05-20T14:39:45;26.50;74.00
30280;DHT22;17097;50.916;5.344;2023-05-20T14:42:10;26.30;73.70
30280;DHT22;17097;50.916;5.344;2023-05-20T14:44:38;26.30;75.10
30280;DHT22;17097;50.916;5.344;2023-05-20T14:47:05;26.30;75.40
30280;DHT22;17097;50.916;5.344;2023-05-20T14:49:30;26.20;75.50
30280;DHT22;17097;50.916;5.344;2023-05-20T14:51:57;26.40;77.20
30280;DHT22;17097;50.916;5.344;2023-05-20T14:54:22;26.40;77.30
30280;DHT22;17097;50.916;5.344;2023-05-20T14:56:50;26.40;79.20
30280;DHT22;17097;50.916;5.344;2023-05-20T14:59:16;26.30;76.40
30280;DHT22;17097;50.916;5.344;2023-05-20T15:01:42;26.40;80.90
30280;DHT22;17097;50.916;5.344;2023-05-20T15:04:08;26.60;77.10
30280;DHT22;17097;50.916;5.344;2023-05-20T15:06:37;26.60;75.30
30280;DHT22;17097;50.916;5.344;2023-05-20T15:09:04;26.50;77.60
30280;DHT22;17097;50.916;5.344;2023-05-20T15:11:30;26.20;75.40
30280;DHT22;17097;50.916;5.344;2023-05-20T15:13:56;26.10;79.40
30280;DHT22;17097;50.916;5.344;2023-05-20T15:16:23;26.00;79.60
30280;DHT22;17097;50.916;5.344;2023-05-20T15:18:50;25.90;79.50
30280;DHT22;17097;50.916;5.344;2023-05-20T15:21:16;25.90;80.00
30280;DHT22;17097;50.916;5.344;2023-05-20T15:23:41;25.90;79.60
30280;DHT22;17097;50.916;5.344;2023-05-20T15:26:08;25.60;78.30
30280;DHT22;17097;50.916;5.344;2023-05-20T15:28:36;25.50;79.30
30280;DHT22;17097;50.916;5.344;2023-05-20T15:31:04;25.30;80.40
30280;DHT22;17097;50.916;5.344;2023-05-20T15:33:30;25.10;81.00
30280;DHT22;17097;50.916;5.344;2023-05-20T15:35:56;25.00;82.40
30280;DHT22;17097;50.916;5.344;2023-05-20T15:38:23;25.00;82.80
30280;DHT22;17097;50.916;5.344;2023-05-20T15:40:50;24.80;82.90
30280;DHT22;17097;50.916;5.344;2023-05-20T15:43:17;24.80;84.10
30280;DHT22;17097;50.916;5.344;2023-05-20T15:45:43;24.70;81.90